createdAt,value
2023-05-16T00:02:57.006Z,9.90
2023-05-16T00:08:00.996Z,9.50
2023-05-16T00:13:05.134Z,8.80
2023-05-16T00:18:09.338Z,9.40
2023-05-16T00:23:13.711Z,8.70
2023-05-16T00:28:17.847Z,9.00
2023-05-16T00:33:22.290Z,8.80
2023-05-16T00:38:26.733Z,8.20
2023-05-16T00:43:31.275Z,8.60
2023-05-16T00:48:35.811Z,7.80
2023-05-16T00:53:40.060Z,8.20
2023-05-16T00:58:44.499Z,7.60
2023-05-16T01:03:50.091Z,7.60
2023-05-16T01:08:54.195Z,7.50
2023-05-16T01:14:23.808Z,7.20
2023-05-16T01:19:54.807Z,7.20
2023-05-16T01:25:17.311Z,6.80
2023-05-16T01:30:21.658Z,6.90
2023-05-16T01:35:26.018Z,6.70
2023-05-16T01:40:56.739Z,6.70
2023-05-16T01:46:08.897Z,6.70
2023-05-16T01:51:14.729Z,6.20
2023-05-16T01:56:20.379Z,6.20
2023-05-16T02:01:25.094Z,5.90
2023-05-16T02:06:29.271Z,6.20
2023-05-16T02:11:34.140Z,5.60
2023-05-16T02:16:39.023Z,5.80
2023-05-16T02:21:43.011Z,5.80
2023-05-16T02:26:48.875Z,5.40
2023-05-16T02:31:52.999Z,5.40
2023-05-16T02:36:56.842Z,5.20
2023-05-16T02:42:00.998Z,5.40
2023-05-16T02:47:05.535Z,4.90
2023-05-16T02:52:09.537Z,4.90
2023-05-16T02:57:13.859Z,5.40
2023-05-16T03:02:17.855Z,4.90
2023-05-16T03:07:21.851Z,5.00
2023-05-16T03:12:25.983Z,5.00
2023-05-16T03:17:30.165Z,4.80
2023-05-16T03:22:34.784Z,4.80
2023-05-16T03:27:38.802Z,4.90
2023-05-16T03:32:42.750Z,4.20
2023-05-16T03:37:46.869Z,4.20
2023-05-16T03:42:51.360Z,5.10
2023-05-16T03:47:55.356Z,4.40
2023-05-16T03:52:59.800Z,4.60
2023-05-16T03:58:03.727Z,4.10
2023-05-16T04:03:08.103Z,4.50
2023-05-16T04:08:12.522Z,3.80
2023-05-16T04:13:16.678Z,4.20
2023-05-16T04:18:20.886Z,4.50
2023-05-16T04:23:24.808Z,4.30
2023-05-16T04:28:28.977Z,3.80
2023-05-16T04:33:33.182Z,3.60
2023-05-16T04:38:37.208Z,3.70
2023-05-16T04:43:42.359Z,3.60
2023-05-16T04:48:46.614Z,4.00
2023-05-16T04:53:50.844Z,3.80
2023-05-16T04:58:55.306Z,3.80
2023-05-16T05:03:59.634Z,3.30
2023-05-16T05:09:03.665Z,3.50
2023-05-16T05:14:07.792Z,3.30
2023-05-16T05:19:11.639Z,3.50
2023-05-16T05:24:15.860Z,4.00
2023-05-16T05:29:19.783Z,3.80
2023-05-16T05:34:23.810Z,3.40
2023-05-16T05:39:27.866Z,3.80
2023-05-16T05:44:32.202Z,3.80
2023-05-16T05:49:36.421Z,3.10
2023-05-16T05:54:40.683Z,3.60
2023-05-16T05:59:44.603Z,3.60
2023-05-16T06:04:48.658Z,3.30
2023-05-16T06:09:53.094Z,3.30
2023-05-16T06:14:57.104Z,4.00
2023-05-16T06:20:01.550Z,3.40
2023-05-16T06:25:07.034Z,3.90
2023-05-16T06:30:22.107Z,3.20
2023-05-16T06:35:27.507Z,8.60
2023-05-16T06:40:31.492Z,43.20
2023-05-16T06:45:35.725Z,79.80
2023-05-16T06:50:39.871Z,72.10
2023-05-16T06:55:44.130Z,65.20
2023-05-16T07:00:50.658Z,60.60
2023-05-16T07:05:55.024Z,56.70
2023-05-16T07:10:59.478Z,52.10
2023-05-16T07:16:04.080Z,53.60
2023-05-16T07:21:08.782Z,50.20
2023-05-16T07:26:12.810Z,48.60
2023-05-16T07:31:17.691Z,46.70
2023-05-16T07:36:21.694Z,42.20
2023-05-16T07:41:26.018Z,42.70
2023-05-16T07:46:30.512Z,40.00
2023-05-16T07:51:37.160Z,39.70
2023-05-16T07:56:42.473Z,39.60
2023-05-16T08:01:47.054Z,36.40
2023-05-16T08:06:51.225Z,34.80
2023-05-16T08:11:55.528Z,34.40
2023-05-16T08:17:00.906Z,33.20
2023-05-16T08:22:07.566Z,32.80
2023-05-16T08:27:12.650Z,32.60
2023-05-16T08:32:16.986Z,31.90
2023-05-16T08:37:21.428Z,30.80
2023-05-16T08:42:25.550Z,29.40
2023-05-16T08:47:32.498Z,29.70
2023-05-16T08:52:39.706Z,28.80
2023-05-16T08:57:44.826Z,28.30
2023-05-16T09:02:49.561Z,28.30
2023-05-16T09:07:53.706Z,26.50
2023-05-16T09:12:58.170Z,25.40
2023-05-16T09:18:03.665Z,26.10
2023-05-16T09:23:10.013Z,25.40
2023-05-16T09:28:15.145Z,24.40
2023-05-16T09:33:19.408Z,23.40
2023-05-16T09:38:23.323Z,23.00
2023-05-16T09:43:27.882Z,23.30
2023-05-16T09:48:33.741Z,21.90
2023-05-16T09:53:39.111Z,21.10
2023-05-16T09:58:44.449Z,20.70
2023-05-16T10:03:48.710Z,20.00
2023-05-16T10:08:53.143Z,20.30
2023-05-16T10:13:57.493Z,19.70
2023-05-16T10:19:04.213Z,19.40
2023-05-16T10:24:12.411Z,19.00
2023-05-16T10:29:17.569Z,20.00
2023-05-16T10:34:21.998Z,18.50
2023-05-16T10:39:26.857Z,19.30
2023-05-16T10:44:34.265Z,17.40
2023-05-16T10:49:42.509Z,17.50
2023-05-16T10:54:52.555Z,16.40
2023-05-16T11:00:02.327Z,17.30
2023-05-16T11:05:09.278Z,17.00
2023-05-16T11:10:17.585Z,16.60
2023-05-16T11:15:25.933Z,16.10
2023-05-16T11:20:35.696Z,15.80
2023-05-16T11:25:41.594Z,16.20
2023-05-16T11:30:56.483Z,15.00
2023-05-16T11:36:15.843Z,16.10
2023-05-16T11:41:22.684Z,15.20
2023-05-16T11:46:27.867Z,15.20
2023-05-16T11:51:32.609Z,15.20
2023-05-16T11:56:37.454Z,15.80
2023-05-16T12:01:41.911Z,15.40
2023-05-16T12:06:59.170Z,15.10
2023-05-16T12:12:06.018Z,14.90
2023-05-16T12:17:10.175Z,14.80
2023-05-16T12:22:20.774Z,14.50
2023-05-16T12:27:30.411Z,14.50
2023-05-16T12:32:38.300Z,14.30
2023-05-16T12:37:44.332Z,14.80
2023-05-16T12:42:52.730Z,13.00
2023-05-16T12:47:56.906Z,13.70
2023-05-16T12:53:02.135Z,14.20
2023-05-16T12:58:06.509Z,13.10
2023-05-16T13:03:12.093Z,14.40
2023-05-16T13:08:16.574Z,12.50
2023-05-16T13:13:34.974Z,13.50
2023-05-16T13:18:40.227Z,12.60
2023-05-16T13:23:44.535Z,13.60
2023-05-16T13:28:51.862Z,14.40
2023-05-16T13:33:56.380Z,13.80
2023-05-16T13:39:00.672Z,13.40
2023-05-16T13:44:07.479Z,13.20
2023-05-16T13:49:11.572Z,12.40
2023-05-16T13:54:15.990Z,11.80
2023-05-16T13:59:28.528Z,12.50
2023-05-16T14:04:44.555Z,11.60
2023-05-16T14:09:48.676Z,11.50
2023-05-16T14:14:55.673Z,11.50
2023-05-16T14:20:00.706Z,11.70
2023-05-16T14:25:06.576Z,12.20
2023-05-16T14:30:11.561Z,11.70
2023-05-16T14:35:15.593Z,11.90
2023-05-16T14:40:19.629Z,11.90
2023-05-16T14:45:23.880Z,10.80
2023-05-16T14:50:29.216Z,11.40
2023-05-16T14:55:33.361Z,10.80
2023-05-16T15:00:37.503Z,11.90
2023-05-16T15:05:41.539Z,12.80
2023-05-16T15:10:45.873Z,11.30
2023-05-16T15:15:49.930Z,12.10
2023-05-16T15:20:54.046Z,12.30
2023-05-16T15:25:58.374Z,13.30
2023-05-16T15:31:05.092Z,12.10
2023-05-16T15:36:09.621Z,11.50
2023-05-16T15:41:24.038Z,11.50
2023-05-16T15:46:40.135Z,11.50
2023-05-16T15:51:44.421Z,11.50
2023-05-16T15:56:48.762Z,11.30
2023-05-16T16:01:54.798Z,10.70
2023-05-16T16:06:59.481Z,11.10
2023-05-16T16:12:03.622Z,12.50
2023-05-16T16:17:07.663Z,11.90
2023-05-16T16:22:12.411Z,12.40
2023-05-16T16:27:16.830Z,11.60
2023-05-16T16:32:20.676Z,11.40
2023-05-16T16:37:25.944Z,11.80
2023-05-16T16:42:30.877Z,11.00
2023-05-16T16:47:34.922Z,10.50
2023-05-16T16:52:39.042Z,10.90
2023-05-16T16:57:43.398Z,9.40
2023-05-16T17:02:47.317Z,9.50
2023-05-16T17:07:52.164Z,9.90
2023-05-16T17:12:56.304Z,9.50
2023-05-16T17:18:00.498Z,10.60
2023-05-16T17:23:07.055Z,9.00
2023-05-16T17:28:11.978Z,9.30
2023-05-16T17:33:16.663Z,9.00
2023-05-16T17:38:20.652Z,9.00
2023-05-16T17:43:25.014Z,9.80
2023-05-16T17:48:32.486Z,9.50
2023-05-16T17:53:39.740Z,9.90
2023-05-16T17:58:46.089Z,9.60
2023-05-16T18:03:51.019Z,9.50
2023-05-16T18:08:57.025Z,9.30
2023-05-16T18:14:02.516Z,8.90
2023-05-16T18:19:09.312Z,8.50
2023-05-16T18:24:16.263Z,8.90
2023-05-16T18:29:21.464Z,7.90
2023-05-16T18:34:26.901Z,8.80
2023-05-16T18:39:32.589Z,7.80
2023-05-16T18:44:38.275Z,7.90
2023-05-16T18:49:44.360Z,8.20
2023-05-16T18:54:49.084Z,8.10
2023-05-16T18:59:56.707Z,7.90
2023-05-16T19:05:02.455Z,8.00
2023-05-16T19:10:08.050Z,7.90
2023-05-16T19:15:13.412Z,8.00
2023-05-16T19:20:18.170Z,8.40
2023-05-16T19:25:22.498Z,8.40
2023-05-16T19:30:27.202Z,8.40
2023-05-16T19:35:33.679Z,8.60
2023-05-16T19:40:39.573Z,8.60
2023-05-16T19:45:43.763Z,8.70
2023-05-16T19:50:48.008Z,8.50
2023-05-16T19:55:52.114Z,8.40
2023-05-16T20:00:57.741Z,8.40
2023-05-16T20:06:03.167Z,7.80
2023-05-16T20:11:07.711Z,8.90
2023-05-16T20:16:13.371Z,38.60
2023-05-16T20:21:17.801Z,35.70
2023-05-16T20:26:22.871Z,40.90
2023-05-16T20:31:27.308Z,70.20
2023-05-16T20:36:31.451Z,67.70
2023-05-16T20:41:36.092Z,60.60
2023-05-16T20:46:41.157Z,57.70
2023-05-16T20:51:45.184Z,55.70
2023-05-16T20:56:49.227Z,47.90
2023-05-16T21:01:54.051Z,48.70
2023-05-16T21:06:58.209Z,45.90
2023-05-16T21:12:02.638Z,47.90
2023-05-16T21:17:06.992Z,42.40
2023-05-16T21:22:11.844Z,40.60
2023-05-16T21:27:15.986Z,39.50
2023-05-16T21:32:20.559Z,38.00
2023-05-16T21:37:24.972Z,37.60
2023-05-16T21:42:28.994Z,37.40
2023-05-16T21:47:33.195Z,35.40
2023-05-16T21:52:38.381Z,34.10
2023-05-16T21:57:42.527Z,32.10
2023-05-16T22:02:46.907Z,33.50
2023-05-16T22:07:52.022Z,31.20
2023-05-16T22:12:56.246Z,29.50
2023-05-16T22:18:00.480Z,28.20
2023-05-16T22:23:04.539Z,27.10
2023-05-16T22:28:08.770Z,26.10
2023-05-16T22:33:13.102Z,25.30
2023-05-16T22:38:17.446Z,25.00
2023-05-16T22:43:21.688Z,26.80
2023-05-16T22:48:26.365Z,24.80
2023-05-16T22:53:30.564Z,25.00
2023-05-16T22:58:35.091Z,25.00
2023-05-16T23:03:39.123Z,23.90
2023-05-16T23:08:43.360Z,22.70
2023-05-16T23:13:47.633Z,23.90
2023-05-16T23:18:52.010Z,22.70
2023-05-16T23:23:56.307Z,21.60
2023-05-16T23:29:00.957Z,21.40
2023-05-16T23:34:05.270Z,21.30
2023-05-16T23:39:09.513Z,20.80
2023-05-16T23:44:14.370Z,19.80
2023-05-16T23:49:18.298Z,20.00
2023-05-16T23:54:22.543Z,20.60
2023-05-16T23:59:26.670Z,20.90
